Kenilworth, Illinois
Current Conditions -  °F | °C
As of 4:52 PM on Monday 24 Nov 2014 (Local Time) from KPWK Reporting Station
Light Snow Light Snow  
Wind Chill: 16°   Ceiling: 1700
Heat Index: 28°   Visibility: 6mi
Dew Point: 23°   Wind: 17mph
Humidity: 81%   Direction: 240°WSW
Pressure: 29.59"   Gusts: 29mph
Location:  42.09°N, 87.72°W
Report Text: KPWK 242252Z 24015G25KT 6SM -SN OVC017 M02/M05 A2959 RMK AO2 PK WND 25028/2209 SLP025 P0000 T10221050
Loading
Personal Weather Stations






























Interactive Weather Map New forecast layout! Learn more

10-Day Weather Forecast

Advertisements
Track Severe Weather on mobile